Time;durP1;ratioP1;P1;durP2;ratioP2;P2;SDS_P1;SDS_P2;PMS_P1;PMS_P2;Temp;Humidity;BMP_temperature;BMP_pressure;BME280_temperature;BME280_humidity;BME280_pressure;Samples;Min_cycle;Max_cycle;Signal;HPM_P1;HPM_P2
2021/05/17 00:00:27;;;;;;;4.60;2.60;;;10.00;99.90;;;8.47;91.24;99770.69;3489529;40;102483;-40
2021/05/17 00:03:00;;;;;;;3.47;2.20;;;10.00;99.90;;;8.51;91.08;99765.69;3498323;40;103587;-40
2021/05/17 00:05:30;;;;;;;4.93;2.65;;;10.00;99.90;;;8.52;91.31;99764.63;3497907;40;104899;-40
2021/05/17 00:07:58;;;;;;;6.10;2.55;;;10.00;99.90;;;8.55;90.77;99771.50;3497942;40;103997;-40
2021/05/17 00:10:27;;;;;;;;;;;10.00;99.90;;;8.55;90.87;99758.72;3482446;40;102412;-40
2021/05/17 00:12:55;;;;;;;4.15;2.40;;;10.10;99.90;;;8.59;90.74;99770.81;3490454;40;104942;-40
2021/05/17 00:15:24;;;;;;;6.05;2.67;;;10.10;99.90;;;8.62;90.71;99770.38;3489715;40;103485;-40
2021/05/17 00:17:55;;;;;;;4.78;2.42;;;10.10;99.90;;;8.63;90.16;99773.91;3481949;40;104366;-40
2021/05/17 00:20:26;;;;;;;5.68;2.63;;;10.10;99.90;;;8.61;90.34;99770.59;3489792;40;103663;-40
2021/05/17 00:22:55;;;;;;;6.57;2.45;;;10.10;99.90;;;8.65;90.24;99774.53;3481752;40;103153;-40
2021/05/17 00:25:27;;;;;;;4.45;2.05;;;10.10;99.90;;;8.68;90.36;99771.34;3497236;40;102985;-40
2021/05/17 00:27:58;;;;;;;3.22;1.70;;;10.20;99.90;;;8.67;89.77;99775.13;3498075;40;103393;-40
2021/05/17 00:30:30;;;;;;;3.47;1.90;;;10.10;99.90;;;8.69;90.10;99778.44;3497689;40;102418;-40
2021/05/17 00:33:01;;;;;;;3.38;1.95;;;10.20;99.90;;;8.74;89.72;99773.16;3497599;40;103121;-40
2021/05/17 00:35:31;;;;;;;4.80;2.17;;;10.20;99.90;;;8.76;89.10;99778.38;3489547;40;102602;-40
2021/05/17 00:37:59;;;;;;;4.07;2.08;;;10.20;99.90;;;8.82;89.54;99782.91;3481592;40;102321;-40
2021/05/17 00:40:27;;;;;;;4.10;2.13;;;10.30;99.90;;;8.84;88.65;99775.34;3481704;40;104486;-40
2021/05/17 00:42:57;;;;;;;5.35;2.08;;;10.30;99.90;;;8.82;88.64;99782.91;3497793;40;103076;-39
2021/05/17 00:45:27;;;;;;;4.72;2.03;;;10.30;99.90;;;8.84;88.50;99779.97;3490037;40;103659;-40
2021/05/17 00:47:57;;;;;;;3.83;1.92;;;10.30;99.90;;;8.84;88.32;99771.81;3491322;40;102079;-40
2021/05/17 00:50:28;;;;;;;9.63;2.35;;;10.30;99.90;;;8.84;88.64;99782.69;3483400;40;102490;-40
2021/05/17 00:52:59;;;;;;;3.85;1.92;;;10.30;99.90;;;8.84;88.72;99779.97;3499663;40;103152;-40
2021/05/17 00:55:30;;;;;;;3.58;2.28;;;10.30;99.90;;;8.83;88.82;99781.03;3482720;40;102314;-39
2021/05/17 00:57:59;;;;;;;3.90;2.00;;;10.30;99.90;;;8.78;89.02;99777.13;3498793;40;102931;-39
2021/05/17 01:00:31;;;;;;;5.28;2.40;;;10.30;99.90;;;8.77;89.11;99775.47;3499014;40;102555;-39
2021/05/17 01:03:03;;;;;;;4.47;2.53;;;10.30;99.90;;;8.76;89.34;99772.94;3490865;40;102305;-40
2021/05/17 01:05:42;;;;;;;5.05;2.00;;;10.20;99.90;;;8.76;89.26;99784.69;3499168;40;102407;-40
2021/05/17 01:08:25;;;;;;;5.22;2.35;;;10.20;99.90;;;8.78;89.80;99776.28;3491516;40;102304;-39
2021/05/17 01:10:58;;;;;;;2.80;1.70;;;10.20;99.90;;;8.77;89.71;99780.06;3491211;40;102268;-39
2021/05/17 01:13:31;;;;;;;4.13;1.80;;;10.20;99.90;;;8.76;89.94;99773.78;3490965;40;103305;-39
2021/05/17 01:16:03;;;;;;;4.32;2.10;;;10.20;99.90;;;8.74;89.94;99775.88;3499064;40;102301;-40
2021/05/17 01:18:34;;;;;;;4.30;1.77;;;10.20;99.90;;;8.79;90.29;99780.66;3490676;40;104043;-40
2021/05/17 01:21:06;;;;;;;4.85;1.65;;;10.20;99.90;;;8.80;90.28;99785.03;3483541;40;102413;-39
2021/05/17 01:26:15;;;;;;;3.22;1.30;;;10.30;99.90;;;8.77;90.51;99774.59;3499310;40;102326;-41
2021/05/17 01:28:45;;;;;;;4.15;1.63;;;10.30;99.90;;;8.77;90.61;99778.19;3506888;40;104009;-40
2021/05/17 01:31:16;;;;;;;3.50;1.60;;;10.20;99.90;;;8.84;90.45;99785.44;3490873;40;102303;-40
2021/05/17 01:33:47;;;;;;;2.97;1.27;;;10.30;99.90;;;8.83;90.87;99778.31;3482599;40;103135;-40
2021/05/17 01:36:20;;;;;;;2.72;1.27;;;10.30;99.90;;;8.83;90.88;99779.13;3491031;40;102426;-40
2021/05/17 01:38:53;;;;;;;3.10;1.40;;;10.30;99.90;;;8.83;91.16;99778.31;3506858;40;102352;-40
2021/05/17 01:41:27;;;;;;;5.00;1.42;;;10.30;99.90;;;8.84;91.12;99774.53;3498964;40;102356;-40
2021/05/17 01:43:58;;;;;;;2.35;1.40;;;10.30;99.90;;;8.83;91.01;99776.41;3490473;40;102321;-40
2021/05/17 01:46:32;;;;;;;3.42;1.40;;;10.30;99.90;;;8.81;90.82;99781.25;3498929;40;102207;-39
2021/05/17 01:49:09;;;;;;;2.10;1.30;;;10.30;99.90;;;8.84;91.25;99777.25;3499225;40;102256;-40
2021/05/17 01:51:38;;;;;;;2.38;1.35;;;10.30;99.90;;;8.84;91.56;99780.78;3490567;40;102226;-40
2021/05/17 01:54:11;;;;;;;1.90;1.30;;;10.30;99.90;;;8.89;91.29;99782.84;3490401;40;102148;-40
2021/05/17 01:56:45;;;;;;;2.70;1.10;;;10.30;99.90;;;8.89;91.08;99782.84;3491655;40;102506;-40
2021/05/17 01:59:31;;;;;;;2.60;1.15;;;10.30;99.90;;;8.89;90.96;99780.13;3498853;40;103056;-40
2021/05/17 02:02:01;;;;;;;2.22;1.15;;;10.30;99.90;;;8.88;91.24;99773.03;3490903;40;102362;-40
2021/05/17 02:04:32;;;;;;;2.05;0.90;;;10.40;99.90;;;8.87;90.99;99783.06;3506403;40;102232;-40
2021/05/17 02:07:01;;;;;;;1.25;0.77;;;10.30;99.90;;;8.90;91.04;99779.91;3498650;40;102520;-40
2021/05/17 02:09:36;;;;;;;2.42;1.05;;;10.30;99.90;;;8.89;90.97;99777.41;3626796;23;103181;-39
2021/05/17 02:12:08;;;;;;;1.73;0.80;;;10.30;99.90;;;8.88;90.73;99773.03;3491313;40;102395;-40
2021/05/17 02:14:54;;;;;;;4.97;1.05;;;10.30;99.90;;;8.90;90.34;99779.91;3491849;40;103179;-40
2021/05/17 02:17:26;;;;;;;1.70;0.90;;;10.30;99.90;;;8.93;90.10;99778.59;3499081;40;103111;-40
2021/05/17 02:19:57;;;;;;;1.92;0.75;;;10.40;99.90;;;8.90;90.12;99773.63;3499382;40;103239;-40
2021/05/17 02:22:26;;;;;;;2.63;0.70;;;10.30;99.90;;;8.89;90.05;99778.25;3467628;40;103591;-40
2021/05/17 02:25:07;;;;;;;2.53;0.80;;;10.40;99.90;;;8.94;90.03;99777.56;3484891;40;103123;-40
2021/05/17 02:27:40;;;;;;;1.42;0.60;;;10.30;99.90;;;8.92;89.60;99783.22;3467049;40;104671;-40
2021/05/17 02:30:12;;;;;;;1.73;0.70;;;10.40;99.90;;;8.90;90.05;99781.78;3467774;40;104536;-40
2021/05/17 02:32:42;;;;;;;2.25;0.63;;;10.40;99.90;;;8.89;90.02;99788.28;3483904;40;102386;-40
2021/05/17 02:35:16;;;;;;;1.73;0.70;;;10.40;99.90;;;8.87;90.15;99784.97;3475847;40;103298;-40
2021/05/17 02:37:45;;;;;;;1.25;0.60;;;10.30;99.90;;;8.93;89.73;99792.22;3491220;40;102334;-40
2021/05/17 02:40:15;;;;;;;4.18;0.70;;;10.30;99.90;;;8.93;89.66;99789.50;3482806;40;103181;-40
2021/05/17 02:42:48;;;;;;;2.25;0.70;;;10.40;99.90;;;8.98;89.53;99788.81;3475638;40;102351;-40
2021/05/17 02:45:25;;;;;;;1.33;0.63;;;10.40;99.90;;;9.00;89.27;99795.69;3492162;40;103290;-39
2021/05/17 02:48:00;;;;;;;2.50;0.70;;;10.40;99.90;;;9.01;88.68;99797.34;3500185;40;103314;-39
2021/05/17 02:50:44;;;;;;;2.53;0.90;;;10.50;99.90;;;8.96;89.09;99794.47;3490720;40;105037;-40
2021/05/17 02:53:32;;;;;;;2.20;0.63;;;10.40;99.90;;;8.85;89.46;99779.75;3500478;40;102265;-40
2021/05/17 02:56:11;;;;;;;1.25;0.55;;;10.40;99.90;;;8.99;89.10;99790.47;3482939;40;105164;-40
2021/05/17 02:58:46;;;;;;;2.78;0.73;;;10.40;99.90;;;8.94;89.52;99798.50;3484025;40;102556;-40
2021/05/17 03:01:36;;;;;;;2.17;0.60;;;10.40;99.90;;;8.90;89.81;99801.69;3483738;40;104022;-40
2021/05/17 03:04:18;;;;;;;2.65;0.77;;;10.40;99.90;;;8.86;89.73;99792.28;3499785;40;102244;-40
2021/05/17 03:07:07;;;;;;;2.00;0.80;;;10.30;99.90;;;8.88;90.51;99794.78;3475397;40;104363;-40
2021/05/17 03:09:39;;;;;;;2.53;0.90;;;10.40;99.90;;;8.91;90.01;99799.78;3491463;40;102536;-39
2021/05/17 03:12:11;;;;;;;1.45;0.60;;;10.30;99.90;;;8.87;89.99;99798.56;3491577;40;103614;-39
2021/05/17 03:14:43;;;;;;;1.92;0.75;;;10.30;99.90;;;8.85;89.80;99801.50;3474440;40;103624;-40
2021/05/17 03:17:12;;;;;;;2.10;0.70;;;10.30;99.90;;;8.87;90.09;99809.44;3491410;40;104069;-39
2021/05/17 03:19:46;;;;;;;2.15;0.80;;;10.30;99.90;;;8.88;90.05;99803.75;3468844;40;104121;-40
2021/05/17 03:22:15;;;;;;;2.35;0.90;;;10.40;99.90;;;8.90;90.28;99806.28;3474820;40;105945;-40
2021/05/17 03:24:47;;;;;;;0.90;0.70;;;10.40;99.90;;;8.89;90.13;99802.72;3490579;40;102318;-39
2021/05/17 03:27:21;;;;;;;1.75;0.80;;;10.30;99.90;;;8.89;90.06;99804.59;3482481;40;106136;-40
2021/05/17 03:29:51;;;;;;;2.28;1.13;;;10.30;99.90;;;8.85;90.09;99795.25;3482971;40;103237;-39
2021/05/17 03:32:22;;;;;;;2.67;1.10;;;10.30;99.90;;;8.87;90.38;99798.56;3482790;40;105799;-40
2021/05/17 03:34:50;;;;;;;3.17;0.90;;;10.30;99.90;;;8.89;90.61;99810.03;3499649;40;103060;-39
2021/05/17 03:37:18;;;;;;;4.63;1.00;;;10.40;99.90;;;8.88;90.47;99803.75;3482881;40;104448;-39
2021/05/17 03:39:49;;;;;;;2.53;0.77;;;10.30;99.90;;;8.93;90.18;99811.25;3482675;40;102520;-41
2021/05/17 03:42:17;;;;;;;2.33;0.77;;;10.40;99.90;;;8.92;90.33;99796.00;3491356;40;103440;-40
2021/05/17 03:44:45;;;;;;;2.45;1.00;;;10.40;99.90;;;8.92;90.52;99805.00;3458499;40;103330;-40
2021/05/17 03:47:13;;;;;;;;;;;10.40;99.90;;;8.92;90.33;99802.28;3475393;40;105977;-40
2021/05/17 03:49:41;;;;;;;2.35;0.80;;;10.40;99.90;;;8.96;90.45;99804.53;3474843;40;102155;-40
2021/05/17 03:52:09;;;;;;;2.38;1.13;;;10.40;99.90;;;8.96;90.23;99807.25;3498864;40;105727;-40
2021/05/17 03:54:37;;;;;;;;;;;10.40;99.90;;;8.97;90.23;99808.94;3483017;40;105227;-40
2021/05/17 03:57:06;;;;;;;3.70;1.02;;;10.40;99.90;;;8.98;90.22;99805.97;3498840;40;104713;-40
2021/05/17 03:59:35;;;;;;;2.38;0.90;;;10.40;99.90;;;9.01;90.34;99807.41;3490390;40;104921;-40
2021/05/17 04:02:04;;;;;;;2.83;0.90;;;10.40;99.90;;;9.01;89.88;99810.94;3482483;40;105732;-40
2021/05/17 04:04:38;;;;;;;2.30;0.90;;;10.40;99.90;;;9.03;89.86;99811.56;3490399;40;102799;-39
2021/05/17 04:14:59;;;;;;;2.55;1.13;;;10.50;99.90;;;9.15;89.36;99822.53;3476524;40;103692;-39
2021/05/17 04:17:26;;;;;;;1.85;1.10;;;10.60;99.90;;;9.14;89.26;99820.84;3482479;40;103066;-40
2021/05/17 04:19:56;;;;;;;;;;;10.60;99.90;;;9.22;89.45;99817.00;3459468;40;104078;-40
2021/05/17 04:22:24;;;;;;;2.45;1.00;;;10.60;99.90;;;9.30;89.94;99816.69;3484047;40;105010;-40
2021/05/17 04:24:51;;;;;;;5.65;1.35;;;10.70;99.90;;;9.30;89.23;99807.69;3483237;40;104799;-40
2021/05/17 04:27:19;;;;;;;2.95;1.50;;;10.70;99.90;;;9.35;88.80;99821.44;3468047;40;106489;-40
2021/05/17 04:29:46;;;;;;;2.78;1.27;;;10.70;99.90;;;9.43;89.03;99820.28;3467484;40;104280;-40
2021/05/17 04:32:14;;;;;;;4.72;1.60;;;10.80;99.90;;;9.33;89.08;99799.91;3483533;40;104976;-39
2021/05/17 04:34:42;;;;;;;3.25;1.45;;;10.80;99.90;;;9.49;88.95;99825.66;3483915;40;103389;-40
2021/05/17 04:37:09;;;;;;;3.38;1.50;;;10.90;99.90;;;9.54;87.51;99829.56;3483941;40;104074;-40
2021/05/17 04:39:37;;;;;;;2.72;1.15;;;10.90;99.90;;;9.58;87.24;99822.59;3475577;40;103437;-40
2021/05/17 04:42:06;;;;;;;3.85;1.60;;;10.90;99.90;;;9.61;86.82;99831.16;3468024;40;104100;-40
2021/05/17 04:44:34;;;;;;;2.33;1.52;;;11.00;99.90;;;9.64;87.30;99832.56;3491191;40;105026;-40
2021/05/17 04:47:01;;;;;;;3.75;1.50;;;10.90;99.90;;;9.64;87.15;99827.97;3484021;40;103076;-45
2021/05/17 04:49:30;;;;;;;5.43;1.65;;;11.00;99.90;;;9.70;87.03;99836.28;3491655;40;104048;-40
2021/05/17 04:51:57;;;;;;;4.15;1.40;;;11.10;99.90;;;9.70;87.24;99836.28;3491544;40;103102;-40
2021/05/17 04:54:26;;;;;;;3.15;1.50;;;11.10;99.90;;;9.75;87.97;99831.81;3500271;40;102816;-39
2021/05/17 04:56:53;;;;;;;2.80;1.40;;;11.10;99.90;;;9.82;87.72;99839.03;3483779;40;103244;-39
2021/05/17 04:59:21;;;;;;;3.60;1.40;;;11.10;99.90;;;9.84;87.61;99832.31;3483454;40;103597;-40
2021/05/17 05:01:49;;;;;;;5.47;1.70;;;11.20;99.90;;;9.92;87.76;99840.16;3483767;40;103579;-40
2021/05/17 05:04:16;;;;;;;4.25;1.50;;;11.20;99.90;;;9.98;87.45;99837.53;3474323;40;105065;-40
2021/05/17 05:06:45;;;;;;;3.78;1.45;;;11.30;99.90;;;10.04;87.13;99842.06;3475574;40;105600;-40
2021/05/17 05:09:12;;;;;;;4.72;1.45;;;11.40;99.90;;;10.03;86.90;99833.06;3491339;40;104451;-39
2021/05/17 05:11:40;;;;;;;3.30;1.30;;;11.40;99.90;;;10.08;86.44;99838.66;3483958;40;103174;-40
2021/05/17 05:14:08;;;;;;;2.60;1.20;;;11.40;99.90;;;9.95;86.57;99827.97;3475503;40;102615;-40
2021/05/17 05:16:35;;;;;;;4.50;1.45;;;11.40;99.90;;;10.04;86.48;99842.06;3483477;40;103116;-40
2021/05/17 05:19:03;;;;;;;2.40;1.10;;;11.40;99.90;;;10.04;86.16;99840.19;3483584;40;102727;-40
2021/05/17 05:21:33;;;;;;;3.28;1.30;;;11.40;99.90;;;10.04;85.73;99842.06;3483785;40;103381;-40
2021/05/17 05:24:01;;;;;;;3.70;1.30;;;11.40;99.90;;;10.03;85.64;99841.25;3475199;40;105346;-40
2021/05/17 05:31:41;;;;;;;3.65;1.33;;;11.40;99.90;;;10.02;85.14;99850.47;3492225;40;105714;-40
2021/05/17 05:34:09;;;;;;;2.67;1.35;;;11.40;99.90;;;10.06;85.64;99846.22;3468402;40;104984;-39
2021/05/17 05:36:37;;;;;;;2.88;1.20;;;11.40;99.90;;;10.10;85.47;99841.16;3483566;40;104254;-40
2021/05/17 05:39:05;;;;;;;3.15;1.13;;;11.50;99.90;;;10.18;85.77;99846.25;3500749;40;102353;-40
2021/05/17 05:41:34;;;;;;;2.45;1.40;;;11.50;99.90;;;10.27;85.80;99845.91;3483412;40;103404;-40
2021/05/17 05:44:02;;;;;;;3.97;1.83;;;11.60;99.90;;;10.38;85.36;99839.66;3482789;40;104552;-40
2021/05/17 05:46:30;;;;;;;4.78;1.98;;;11.70;99.90;;;10.49;84.07;99841.59;3491500;40;103784;-40
2021/05/17 05:48:58;;;;;;;3.50;1.77;;;11.80;99.90;;;10.64;84.32;99845.75;3475513;40;102620;-40
2021/05/17 05:51:29;;;;;;;5.68;2.05;;;11.90;99.90;;;10.73;84.52;99849.78;3483465;40;103274;-40
2021/05/17 05:54:00;;;;;;;5.90;2.50;;;11.90;99.90;;;10.89;84.44;99848.22;3491080;40;102728;-39
2021/05/17 05:56:28;;;;;;;5.47;2.60;;;12.10;99.90;;;11.00;83.25;99849.28;3500231;40;103228;-40
2021/05/17 05:58:57;;;;;;;4.72;3.03;;;12.20;99.90;;;11.17;83.20;99848.56;3483565;40;102379;-40
2021/05/17 06:01:25;;;;;;;5.68;2.25;;;12.30;99.90;;;11.23;81.96;99848.41;3491414;40;103270;-40
2021/05/17 06:03:53;;;;;;;3.85;1.67;;;12.40;99.90;;;11.27;80.93;99861.56;3490064;40;103333;-40
2021/05/17 06:06:20;;;;;;;3.22;1.52;;;12.50;99.90;;;11.25;80.83;99856.38;3483264;40;102351;-40
2021/05/17 06:08:49;;;;;;;2.58;1.65;;;12.50;99.90;;;11.23;81.00;99858.50;3483649;40;102389;-40
2021/05/17 06:11:17;;;;;;;4.03;1.90;;;12.50;99.90;;;11.26;81.31;99858.03;3483293;40;104819;-40
2021/05/17 06:13:48;;;;;;;3.50;1.90;;;12.50;99.90;;;11.22;79.28;99865.03;3482774;40;103460;-40
2021/05/17 06:16:16;;;;;;;7.05;2.30;;;12.50;99.90;;;11.21;80.11;99869.66;3500310;40;104261;-40
2021/05/17 06:18:45;;;;;;;;;;;12.50;99.90;;;11.05;79.76;99848.56;3491712;40;103116;-40
2021/05/17 06:21:13;;;;;;;7.50;2.57;;;12.50;99.90;;;11.16;79.59;99869.56;3491747;40;104258;-39
2021/05/17 06:23:43;;;;;;;4.93;1.88;;;12.50;99.90;;;11.25;80.99;99864.56;3491215;40;102904;-39
2021/05/17 06:26:12;;;;;;;5.28;2.03;;;12.50;99.90;;;11.30;80.63;99872.84;3500230;40;104521;-40
2021/05/17 06:28:40;;;;;;;4.65;2.20;;;12.50;99.90;;;11.32;80.29;99867.97;3500026;40;102319;-41
2021/05/17 06:31:11;;;;;;;4.47;2.10;;;12.60;99.90;;;11.39;78.61;99873.31;3490947;40;104966;-40
2021/05/17 06:33:42;;;;;;;3.90;1.65;;;12.60;99.90;;;11.35;77.29;99869.41;3490868;40;102501;-39
2021/05/17 06:36:13;;;;;;;2.95;1.70;;;12.60;99.90;;;11.44;77.64;99870.69;3500349;40;104114;-40
2021/05/17 06:38:41;;;;;;;6.07;1.60;;;12.70;99.90;;;11.60;78.35;99881.94;3491331;40;103656;-40
2021/05/17 06:41:10;;;;;;;2.90;1.02;;;12.80;99.90;;;11.66;76.46;99881.75;3483381;40;103104;-40
2021/05/17 06:43:40;;;;;;;5.57;1.40;;;12.90;99.90;;;11.69;77.26;99875.00;3482458;40;102365;-39
2021/05/17 06:46:09;;;;;;;3.28;1.10;;;12.90;99.90;;;11.79;76.47;99877.91;3491293;40;104051;-40
2021/05/17 06:51:19;;;;;;;3.83;1.02;;;13.00;99.90;;;12.00;76.14;99883.78;3500294;40;103041;-40
2021/05/17 06:53:50;;;;;;;3.22;1.17;;;13.20;99.90;;;12.01;74.59;99885.47;3482632;40;103884;-40
2021/05/17 06:56:24;;;;;;;3.83;0.85;;;13.20;99.90;;;12.11;76.08;99882.09;3483184;40;104289;-41
2021/05/17 07:01:31;;;;;;;2.50;0.80;;;13.30;99.90;;;12.13;74.89;99882.69;3492176;40;103360;-40
2021/05/17 07:04:00;;;;;;;3.40;0.93;;;13.40;99.90;;;12.18;75.24;99882.75;3489874;40;103696;-40
2021/05/17 07:06:31;;;;;;;3.33;0.88;;;13.40;99.90;;;12.14;73.79;99895.28;3498836;40;104227;-40
2021/05/17 07:14:07;;;;;;;3.35;1.00;;;13.40;99.90;;;12.19;73.54;99897.28;3482050;40;104208;-40
2021/05/17 07:16:35;;;;;;;3.08;0.70;;;13.40;99.90;;;12.19;73.34;99891.81;3490480;40;103087;-41
2021/05/17 07:19:03;;;;;;;3.78;0.95;;;13.50;99.90;;;12.16;73.87;99900.50;3490069;40;102357;-40
2021/05/17 07:24:10;;;;;;;3.13;0.82;;;13.40;99.90;;;12.18;73.28;99903.81;3490959;40;103523;-40
2021/05/17 07:26:38;;;;;;;2.00;0.70;;;13.50;99.90;;;12.25;72.97;99909.16;3490482;40;103280;-40
2021/05/17 07:29:10;;;;;;;1.95;0.70;;;13.40;99.90;;;12.23;71.72;99901.19;3474021;40;103870;-40
2021/05/17 07:31:38;;;;;;;2.85;0.57;;;13.50;99.90;;;12.32;72.66;99912.53;3498821;40;104940;-40
2021/05/17 07:34:06;;;;;;;3.78;0.73;;;13.50;99.90;;;12.30;71.44;99909.22;3482165;40;102226;-40
2021/05/17 07:36:33;;;;;;;2.55;0.70;;;13.50;99.90;;;12.29;72.17;99907.56;3489985;40;105032;-40
2021/05/17 07:39:01;;;;;;;2.95;0.80;;;13.50;99.90;;;12.35;69.32;99906.59;3490301;40;102918;-40
2021/05/17 07:41:29;;;;;;;5.57;0.90;;;13.60;99.90;;;12.41;69.77;99904.78;3490043;40;104129;-40
2021/05/17 07:43:57;;;;;;;;;;;13.70;99.90;;;12.48;69.64;99903.53;3499993;40;103340;-40
2021/05/17 07:46:25;;;;;;;2.40;0.80;;;13.70;99.90;;;12.49;70.61;99907.09;3490376;40;103078;-40
2021/05/17 07:51:31;;;;;;;5.47;0.83;;;13.80;99.90;;;12.87;69.50;99899.22;3498306;40;106091;-40
2021/05/17 07:53:58;;;;;;;;;;;14.00;99.90;;;12.93;68.51;99901.78;3490296;40;103312;-41
2021/05/17 07:56:26;;;;;;;1.60;0.73;;;14.10;99.90;;;12.91;68.82;99878.47;3490174;40;103284;-40
2021/05/17 07:58:53;;;;;;;1.35;0.80;;;14.20;99.90;;;13.06;67.40;99903.34;3481946;40;102413;-41
2021/05/17 08:01:21;;;;;;;2.45;0.70;;;14.20;99.90;;;13.23;67.36;99894.22;3499316;40;103111;-40
2021/05/17 08:03:50;;;;;;;4.05;0.80;;;14.30;99.90;;;13.34;68.06;99896.06;3488958;40;103327;-39
2021/05/17 08:06:18;;;;;;;2.42;0.70;;;14.40;99.90;;;13.24;66.96;99896.72;3499003;40;104180;-40
2021/05/17 08:08:46;;;;;;;2.15;0.70;;;14.40;99.90;;;13.22;66.55;99900.78;3499024;40;102514;-40
2021/05/17 08:11:13;;;;;;;4.15;0.95;;;14.40;99.90;;;13.30;67.37;99899.53;3606858;23;802656;-40
2021/05/17 08:13:42;;;;;;;2.30;0.70;;;14.50;99.90;;;13.39;65.43;99892.53;3518239;40;102330;-40
2021/05/17 08:16:20;;;;;;;3.42;0.80;;;14.50;99.90;;;13.56;67.30;99903.47;3503041;40;102765;-40
2021/05/17 08:18:49;;;;;;;2.60;0.57;;;14.60;99.90;;;13.59;64.70;99900.22;3518473;40;102257;-41
2021/05/17 08:21:17;;;;;;;4.68;0.80;;;14.70;99.90;;;13.67;63.90;99896.22;3513944;40;102295;-39
2021/05/17 08:23:45;;;;;;;1.80;0.60;;;14.80;99.90;;;13.80;65.07;99905.97;3507338;40;102722;-40
2021/05/17 08:26:12;;;;;;;3.70;0.98;;;14.90;99.90;;;13.68;64.39;99892.41;3515796;40;102551;-40
2021/05/17 08:28:41;;;;;;;4.20;0.88;;;14.90;99.90;;;13.51;65.05;99901.50;3500107;40;102151;-40
2021/05/17 08:31:12;;;;;;;3.45;0.82;;;14.80;99.90;;;13.50;67.25;99901.75;3507673;40;104539;-40
2021/05/17 08:33:40;;;;;;;2.45;0.65;;;14.70;99.90;;;13.44;66.08;99894.53;3515250;40;102356;-40
2021/05/17 08:36:08;;;;;;;4.00;0.80;;;14.70;99.90;;;13.54;66.03;99897.44;3508709;40;103987;-40
2021/05/17 08:38:37;;;;;;;2.83;0.95;;;14.70;99.90;;;13.62;64.99;99907.94;3507655;40;103363;-40
2021/05/17 08:41:07;;;;;;;5.95;0.80;;;14.80;99.90;;;13.34;70.52;99917.13;3509111;40;102718;-40
2021/05/17 08:43:38;;;;;;;3.03;0.80;;;14.70;99.90;;;12.94;72.38;99925.34;3507412;40;104126;-41
2021/05/17 08:46:09;;;;;;;2.85;0.80;;;14.50;99.90;;;12.62;73.01;99927.81;3508243;40;102288;-39
2021/05/17 08:48:46;;;;;;;1.88;0.50;;;14.10;99.90;;;12.35;75.50;99928.47;3515370;40;102142;-40
2021/05/17 08:51:29;;;;;;;2.13;0.68;;;13.90;99.90;;;12.29;77.07;99923.97;3508669;40;103168;-39
2021/05/17 08:54:02;;;;;;;2.78;0.88;;;13.70;99.90;;;12.42;78.22;99929.13;3508293;40;102780;-40
2021/05/17 08:56:30;;;;;;;4.10;1.00;;;13.70;99.90;;;12.62;78.04;99928.66;3507447;40;105765;-40
2021/05/17 08:59:03;;;;;;;2.47;0.93;;;13.80;99.90;;;12.72;78.96;99927.16;3507263;40;102139;-39
2021/05/17 09:01:31;;;;;;;2.75;0.73;;;13.90;99.90;;;12.85;78.61;99926.81;3508323;40;104977;-40
2021/05/17 09:04:11;;;;;;;3.17;0.90;;;14.00;99.90;;;12.96;77.23;99930.53;3507181;40;103072;-40
2021/05/17 09:06:54;;;;;;;1.48;0.90;;;14.10;99.90;;;13.29;77.25;99928.84;3509244;40;102241;-40
2021/05/17 09:09:41;;;;;;;3.30;1.00;;;14.30;99.90;;;13.62;75.03;99918.91;3510402;40;102334;-40
2021/05/17 09:12:12;;;;;;;2.72;1.00;;;14.60;99.90;;;13.88;75.30;99924.69;3510413;40;102500;-40
2021/05/17 09:14:41;;;;;;;2.72;1.00;;;14.80;99.90;;;14.23;75.88;99922.59;3510152;40;102212;-40
2021/05/17 09:17:11;;;;;;;2.45;0.90;;;15.10;99.90;;;14.59;72.85;99922.09;3510807;40;102534;-40
2021/05/17 09:19:41;;;;;;;2.10;0.70;;;15.50;99.90;;;14.78;68.72;99914.31;3519567;40;102316;-40
2021/05/17 09:22:23;;;;;;;2.95;0.90;;;15.80;99.90;;;14.96;68.11;99913.88;3510630;40;102469;-40
2021/05/17 09:24:54;;;;;;;2.08;0.88;;;16.00;99.90;;;14.92;65.23;99923.75;3519109;40;104342;-40
2021/05/17 09:27:28;;;;;;;2.28;0.70;;;16.10;99.90;;;15.03;66.10;99910.91;3519521;40;103165;-41
2021/05/17 09:30:00;;;;;;;2.33;0.93;;;16.20;99.90;;;14.91;64.86;99913.03;3519517;40;103399;-40
2021/05/17 09:32:32;;;;;;;2.42;0.90;;;16.10;99.90;;;15.02;68.63;99906.50;3519991;40;104166;-40
2021/05/17 09:35:06;;;;;;;2.17;1.00;;;16.10;99.90;;;15.34;69.74;99907.53;3519353;40;102341;-40
2021/05/17 09:37:46;;;;;;;4.43;1.10;;;16.30;99.90;;;15.57;65.65;99903.50;3510207;40;105268;-40
2021/05/17 09:40:27;;;;;;;2.08;0.80;;;16.50;99.90;;;15.42;62.73;99897.97;3519893;40;102442;-40
2021/05/17 09:43:07;;;;;;;1.95;0.60;;;16.50;99.90;;;15.25;62.86;99904.47;3519775;40;103132;-40
2021/05/17 09:45:46;;;;;;;4.20;1.00;;;16.40;99.90;;;15.35;63.50;99907.25;3519369;40;102357;-41
2021/05/17 09:48:20;;;;;;;3.42;0.80;;;16.50;99.90;;;15.49;62.35;99907.59;3519153;40;103148;-40
2021/05/17 09:51:09;;;;;;;2.05;0.80;;;16.60;99.90;;;15.41;61.48;99905.38;3510417;40;102480;-40
2021/05/17 09:53:40;;;;;;;2.80;0.90;;;16.60;99.90;;;15.72;62.47;99900.00;3519294;40;102257;-40
2021/05/17 09:56:22;;;;;;;1.85;0.65;;;16.70;99.90;;;15.92;59.06;99896.53;3519741;40;102287;-40
2021/05/17 09:59:02;;;;;;;4.28;1.15;;;16.90;99.90;;;16.30;58.89;99899.03;3519423;40;103222;-41
2021/05/17 10:01:30;;;;;;;1.52;0.65;;;17.20;99.90;;;16.56;59.11;99898.25;3519208;40;102197;-40
2021/05/17 10:04:07;;;;;;;2.08;0.93;;;17.50;99.90;;;16.45;56.59;99902.94;3518542;40;103080;-41
2021/05/17 10:06:35;;;;;;;3.83;1.00;;;17.40;99.90;;;16.73;58.91;99893.31;3502901;40;102630;-40
2021/05/17 10:09:03;;;;;;;2.95;0.85;;;17.70;99.90;;;16.53;59.55;99889.44;3502159;40;103092;-41
2021/05/17 10:11:31;;;;;;;3.70;0.80;;;17.70;99.90;;;16.45;57.32;99883.66;3502553;40;104663;-40
2021/05/17 10:13:58;;;;;;;5.90;1.02;;;17.60;99.90;;;16.43;54.99;99886.66;3509939;40;103334;-42
2021/05/17 10:16:26;;;;;;;1.98;0.90;;;17.60;99.90;;;16.57;56.06;99888.88;3519364;40;102455;-43
2021/05/17 10:18:54;;;;;;;1.45;0.50;;;17.60;99.90;;;16.37;54.21;99879.53;3518639;40;103354;-40
2021/05/17 10:21:22;;;;;;;1.63;0.55;;;17.60;99.90;;;15.93;57.95;99897.34;3518793;40;102475;-40
2021/05/17 10:23:50;;;;;;;1.48;0.73;;;17.30;99.90;;;15.21;59.81;99908.84;3510005;40;103097;-40
2021/05/17 10:26:25;;;;;;;0.63;0.32;;;16.80;99.90;;;14.37;63.02;99923.81;3518564;40;102161;-40
2021/05/17 10:28:57;;;;;;;1.48;0.30;;;16.20;99.90;;;13.82;66.34;99922.97;3517965;40;102169;-40
2021/05/17 10:31:25;;;;;;;1.40;0.43;;;15.60;99.90;;;13.27;71.35;99932.91;3519292;40;103208;-39
2021/05/17 10:34:05;;;;;;;1.65;0.43;;;15.00;99.90;;;12.90;74.39;99921.44;3518926;40;102316;-40
2021/05/17 10:36:53;;;;;;;0.82;0.50;;;14.50;99.90;;;12.77;76.16;99914.41;3519098;40;102444;-37
2021/05/17 10:39:34;;;;;;;1.73;0.50;;;14.20;99.90;;;12.80;77.67;99908.44;3518890;40;102312;-40
2021/05/17 10:47:43;;;;;;;1.98;0.70;;;14.30;99.90;;;13.06;75.56;99917.03;3519620;40;102296;-40
2021/05/17 10:50:21;;;;;;;3.00;0.68;;;14.30;99.90;;;12.95;76.12;99915.19;3518892;40;102399;-40
2021/05/17 10:52:49;;;;;;;1.75;0.60;;;14.30;99.90;;;12.86;76.72;99909.31;3510791;40;103316;-40
2021/05/17 10:55:17;;;;;;;3.78;1.00;;;14.20;99.90;;;12.76;75.32;99906.44;3510363;40;103239;-40
2021/05/17 11:00:27;;;;;;;2.70;1.05;;;14.10;99.90;;;12.98;75.86;99922.09;3519356;40;102295;-39
2021/05/17 11:03:16;;;;;;;2.42;0.70;;;14.20;99.90;;;13.16;77.26;99918.25;3517458;40;102538;-41
2021/05/17 11:05:45;;;;;;;0.60;0.60;;;14.30;99.90;;;13.29;78.28;99909.69;3519078;40;102415;-40
2021/05/17 11:08:17;;;;;;;3.20;0.80;;;14.50;99.90;;;13.60;77.84;99912.84;3517945;40;102978;-40
2021/05/17 11:10:58;;;;;;;3.55;1.10;;;14.70;99.90;;;14.03;75.63;99912.22;3518642;40;102217;-40
2021/05/17 11:13:35;;;;;;;1.13;0.80;;;15.00;99.90;;;13.95;71.71;99917.09;3519294;40;102820;-40